Time;durP1;ratioP1;P1;durP2;ratioP2;P2;SDS_P1;SDS_P2;PMS_P1;PMS_P2;Temp;Humidity;BMP_temperature;BMP_pressure;BME280_temperature;BME280_humidity;BME280_pressure;Samples;Min_cycle;Max_cycle;Signal;HPM_P1;HPM_P2
2022/05/18 00:00:48;;;;;;;;;5.00;5.00;;;;;24.05;49.68;100923.75;4960134;28;46357;-67
2022/05/18 00:03:16;;;;;;;;;8.00;6.00;;;;;23.97;49.93;100918.22;4957553;28;45223;-67
2022/05/18 00:05:42;;;;;;;;;5.00;5.00;;;;;23.86;49.85;100914.69;4940358;28;45405;-66
2022/05/18 00:08:08;;;;;;;;;6.75;5.00;;;;;23.88;50.12;100920.75;4957986;28;45398;-68
2022/05/18 00:10:35;;;;;;;;;4.50;4.50;;;;;23.84;49.67;100922.00;4957339;28;46082;-68
2022/05/18 00:13:01;;;;;;;;;5.00;5.00;;;;;23.75;49.99;100921.03;4956927;28;46146;-67
2022/05/18 00:15:28;;;;;;;;;6.50;6.50;;;;;23.73;50.51;100927.50;4957448;28;46035;-66
2022/05/18 00:17:54;;;;;;;;;5.00;5.00;;;;;23.70;50.48;100927.78;4957667;28;45252;-66
2022/05/18 00:20:19;;;;;;;;;7.75;5.00;;;;;23.64;50.65;100935.41;4960090;28;45401;-66
2022/05/18 00:22:57;;;;;;;;;8.50;7.00;;;;;23.57;50.79;100936.94;4958413;28;45444;-66
2022/05/18 00:25:28;;;;;;;;;5.75;4.25;;;;;23.55;51.43;100936.25;4957356;28;45370;-66
2022/05/18 00:27:54;;;;;;;;;8.25;6.50;;;;;23.43;51.44;100926.59;4957502;28;45212;-67
2022/05/18 00:30:21;;;;;;;;;5.75;5.75;;;;;23.40;52.36;100943.00;4956734;28;46235;-67
2022/05/18 00:32:46;;;;;;;;;9.75;7.00;;;;;23.30;53.03;100943.81;4956851;28;45414;-67
2022/05/18 00:35:13;;;;;;;;;6.25;5.25;;;;;23.27;52.81;100943.22;4958236;28;45339;-66
2022/05/18 00:37:38;;;;;;;;;7.25;6.50;;;;;23.19;53.70;100944.72;4958032;28;45489;-70
2022/05/18 00:40:06;;;;;;;;;7.75;6.00;;;;;23.12;54.18;100959.66;4956705;28;45322;-66
2022/05/18 00:42:32;;;;;;;;;6.00;6.00;;;;;23.01;54.35;100954.38;4957156;28;45230;-67
2022/05/18 00:44:57;;;;;;;;;7.75;7.00;;;;;22.87;54.67;100936.84;4957034;28;45228;-66
2022/05/18 00:47:23;;;;;;;;;6.25;4.75;;;;;22.90;54.64;100961.53;4957131;28;45561;-67
2022/05/18 00:49:56;;;;;;;;;7.00;6.25;;;;;22.84;55.92;100966.59;4939529;28;48083;-74
2022/05/18 00:52:29;;;;;;;;;7.00;7.00;;;;;22.75;56.36;100970.91;4956795;28;45275;-74
2022/05/18 00:54:56;;;;;;;;;6.25;6.25;;;;;22.64;56.94;100969.13;4957239;28;45368;-72
2022/05/18 00:57:29;;;;;;;;;7.75;6.25;;;;;22.56;56.74;100961.78;4957059;28;45177;-68
2022/05/18 01:00:00;;;;;;;;;4.75;4.75;;;;;22.52;56.93;100963.00;4938832;28;47217;-67
2022/05/18 01:02:32;;;;;;;;;6.00;6.00;;;;;22.48;56.97;100966.94;4957148;28;45365;-66
2022/05/18 01:05:01;;;;;;;;;6.75;6.75;;;;;22.45;56.43;100973.38;4958847;28;45324;-65
2022/05/18 01:07:32;;;;;;;;;8.00;6.50;;;;;22.40;56.89;100980.09;4957090;28;45294;-69
2022/05/18 01:09:58;;;;;;;;;7.00;5.25;;;;;22.34;56.92;100978.78;4956685;28;45328;-65
2022/05/18 01:12:23;;;;;;;;;6.50;6.25;;;;;22.27;57.35;100988.31;4956260;28;45323;-65
2022/05/18 01:14:55;;;;;;;;;6.50;5.25;;;;;22.16;57.66;100981.16;4956797;28;45546;-66
2022/05/18 01:17:24;;;;;;;;;6.00;6.00;;;;;22.12;57.98;100987.75;4956844;28;45390;-67
2022/05/18 01:19:55;;;;;;;;;5.25;5.25;;;;;22.02;58.09;100985.00;4955939;28;46012;-65
2022/05/18 01:22:41;;;;;;;;;4.75;4.75;;;;;21.99;58.24;100998.66;4956108;28;45218;-67
2022/05/18 01:25:28;;;;;;;;;5.25;5.25;;;;;21.73;58.37;100956.09;4956553;28;45312;-66
2022/05/18 01:27:56;;;;;;;;;6.50;6.50;;;;;21.82;58.56;100978.59;4956458;28;45231;-65
2022/05/18 01:30:22;;;;;;;;;7.25;7.25;;;;;21.80;59.05;100978.72;4956101;28;46148;-71
2022/05/18 01:32:54;;;;;;;;;6.00;6.00;;;;;21.82;58.80;100986.63;4955719;28;45409;-67
2022/05/18 01:35:26;;;;;;;;;7.50;6.25;;;;;21.76;59.61;100989.81;4956181;28;45441;-67
2022/05/18 01:37:57;;;;;;;;;6.50;6.50;;;;;21.73;59.57;100993.56;4956155;28;45326;-68
2022/05/18 01:40:53;;;;;;;;;8.75;6.00;;;;;21.67;59.68;100989.56;4953860;28;46118;-71
2022/05/18 01:43:28;;;;;;;;;7.25;5.50;;;;;21.59;60.04;100995.50;4956338;28;45473;-67
2022/05/18 01:45:57;;;;;;;;;6.50;4.25;;;;;21.52;60.15;100990.78;4957097;28;45412;-69
2022/05/18 01:48:31;;;;;;;;;5.75;5.75;;;;;21.48;60.40;100986.66;4957162;28;45350;-68
2022/05/18 01:51:01;;;;;;;;;8.00;6.75;;;;;21.43;61.37;101001.25;4956082;28;47130;-71
2022/05/18 01:53:28;;;;;;;;;5.25;5.25;;;;;21.35;61.75;101003.69;4956379;28;45307;-69
2022/05/18 01:55:54;;;;;;;;;8.25;7.25;;;;;21.27;61.57;100990.91;4956991;28;45319;-69
2022/05/18 01:58:20;;;;;;;;;10.00;7.00;;;;;21.23;62.11;100993.97;4956866;28;45537;-69
2022/05/18 02:00:46;;;;;;;;;7.00;6.25;;;;;21.16;62.52;101002.44;4957852;28;46313;-75
2022/05/18 02:03:13;;;;;;;;;6.75;6.75;;;;;21.12;62.78;101014.34;4956902;28;45327;-74
2022/05/18 02:05:39;;;;;;;;;6.25;6.25;;;;;21.03;63.33;101004.38;4955280;28;45386;-73
2022/05/18 02:08:04;;;;;;;;;8.25;7.25;;;;;20.96;63.70;100996.00;4957806;28;45471;-67
2022/05/18 02:10:30;;;;;;;;;8.00;8.00;;;;;20.94;64.21;101013.13;4941934;28;47093;-67
2022/05/18 02:12:55;;;;;;;;;9.25;9.25;;;;;20.78;64.35;100995.59;4955881;28;45445;-68
2022/05/18 02:15:23;;;;;;;;;6.75;6.75;;;;;20.83;65.07;101030.84;4954634;28;45495;-67
2022/05/18 02:17:49;;;;;;;;;7.00;5.25;;;;;20.70;65.05;101016.69;4955701;28;45462;-67
2022/05/18 02:20:15;;;;;;;;;6.00;6.00;;;;;20.65;65.97;101022.38;4955371;28;46983;-67
2022/05/18 02:22:41;;;;;;;;;9.75;6.50;;;;;20.57;66.00;101033.66;4955317;28;45223;-68
2022/05/18 02:25:06;;;;;;;;;6.00;6.00;;;;;20.49;66.08;101030.72;4955660;28;45375;-66
2022/05/18 02:27:32;;;;;;;;;6.25;6.25;;;;;20.44;66.04;101041.72;4955720;28;45280;-66
2022/05/18 02:29:57;;;;;;;;;7.00;7.00;;;;;20.36;66.39;101046.78;4957178;28;45496;-67
2022/05/18 02:32:23;;;;;;;;;9.25;5.75;;;;;20.23;67.69;101038.84;4955865;28;45406;-67
2022/05/18 02:34:49;;;;;;;;;9.50;7.00;;;;;20.22;67.06;101047.84;4955920;28;45305;-67
2022/05/18 02:37:14;;;;;;;;;8.50;6.50;;;;;20.15;67.67;101043.91;4956164;28;45196;-68
2022/05/18 02:39:40;;;;;;;;;6.75;5.00;;;;;20.09;67.66;101053.22;4955628;28;45324;-65
2022/05/18 02:42:05;;;;;;;;;7.75;7.75;;;;;20.06;67.53;101065.91;4955809;28;45489;-65
2022/05/18 02:44:31;;;;;;;;;7.75;7.50;;;;;19.99;67.98;101074.38;4955845;28;45384;-65
2022/05/18 02:46:59;;;;;;;;;7.00;7.00;;;;;19.91;67.25;101076.75;4956065;28;45419;-68
2022/05/18 02:49:25;;;;;;;;;7.50;5.00;;;;;19.84;67.42;101078.13;4956383;28;45401;-66
2022/05/18 02:51:51;;;;;;;;;7.00;5.75;;;;;19.74;68.01;101074.41;4959697;28;45403;-66
2022/05/18 02:57:04;;;;;;;;;6.00;6.00;;;;;19.60;67.86;101076.25;4960382;28;45348;-70
2022/05/18 02:59:29;;;;;;;;;5.25;5.25;;;;;19.53;67.90;101065.13;4958788;28;47413;-70
2022/05/18 03:01:55;;;;;;;;;7.75;5.00;;;;;19.50;68.03;101078.69;4958547;28;45462;-71
2022/05/18 03:04:20;;;;;;;;;4.25;4.25;;;;;19.45;68.20;101080.84;4959374;28;45389;-68
2022/05/18 03:06:46;;;;;;;;;4.75;4.75;;;;;19.38;67.94;101084.88;4959343;28;45485;-69
2022/05/18 03:09:11;;;;;;;;;5.00;5.00;;;;;19.33;67.92;101087.91;4959182;28;45677;-71
2022/05/18 03:11:37;;;;;;;;;8.75;7.00;;;;;19.30;67.86;101077.44;4957322;28;45388;-68
2022/05/18 03:14:02;;;;;;;;;12.75;10.25;;;;;19.25;67.38;101077.75;4962480;28;45561;-68
2022/05/18 03:16:29;;;;;;;;;4.00;3.00;;;;;19.21;67.78;101078.06;4959109;28;45244;-69
2022/05/18 03:18:55;;;;;;;;;5.00;5.00;;;;;19.12;67.63;101075.09;4958555;28;45368;-74
2022/05/18 03:24:05;;;;;;;;;3.75;3.75;;;;;18.95;67.65;101070.88;4958612;28;45302;-70
2022/05/18 03:26:30;;;;;;;;;4.00;4.00;;;;;18.89;67.93;101071.28;4958741;28;45256;-67
2022/05/18 03:28:56;;;;;;;;;3.75;3.75;;;;;18.84;68.03;101076.06;4940712;28;48299;-70
2022/05/18 03:31:23;;;;;;;;;3.50;3.50;;;;;18.78;67.85;101077.31;4958406;28;45751;-66
2022/05/18 03:33:49;;;;;;;;;4.00;2.00;;;;;18.76;68.04;101092.56;4958536;28;45393;-67
2022/05/18 03:36:17;;;;;;;;;4.75;3.00;;;;;18.71;68.07;101101.84;4958555;28;45554;-67
2022/05/18 03:38:44;;;;;;;;;5.50;4.00;;;;;18.68;67.97;101108.19;4958404;28;45385;-67
2022/05/18 03:41:10;;;;;;;;;3.25;2.00;;;;;18.66;67.88;101096.78;4940837;28;45283;-71
2022/05/18 03:43:36;;;;;;;;;2.50;2.50;;;;;18.36;67.21;101061.41;4959052;28;45241;-67
2022/05/18 03:46:02;;;;;;;;;2.75;2.75;;;;;18.49;67.39;101103.22;4958823;28;45273;-66
2022/05/18 03:48:28;;;;;;;;;3.50;3.50;;;;;18.51;67.28;101118.16;4958230;28;46005;-68
2022/05/18 03:50:57;;;;;;;;;2.50;2.50;;;;;18.47;67.47;101121.13;4957873;28;45314;-65
2022/05/18 03:53:23;;;;;;;;;2.00;2.00;;;;;18.46;67.30;101128.28;4958279;28;45373;-66
2022/05/18 03:55:48;;;;;;;;;4.00;4.00;;;;;18.43;67.68;101135.59;4959813;28;45299;-68
2022/05/18 03:58:14;;;;;;;;;2.00;2.00;;;;;18.37;68.13;101129.69;4941947;28;45414;-65
2022/05/18 04:00:41;;;;;;;;;3.00;3.00;;;;;18.31;68.29;101139.91;4959045;28;45406;-65
2022/05/18 04:03:08;;;;;;;;;3.25;3.25;;;;;18.27;67.94;101135.75;4957802;28;45257;-66
2022/05/18 04:05:37;;;;;;;;;3.00;3.00;;;;;18.24;67.97;101137.66;4958802;28;45216;-69
2022/05/18 04:08:02;;;;;;;;;5.25;4.00;;;;;18.17;67.87;101133.66;4960129;28;46283;-70
2022/05/18 04:10:28;;;;;;;;;2.50;2.50;;;;;18.16;67.73;101131.94;4959826;28;45379;-69
2022/05/18 04:12:54;;;;;;;;;2.50;2.50;;;;;18.21;67.22;101142.28;4958028;28;45456;-65
2022/05/18 04:15:19;;;;;;;;;2.00;2.00;;;;;18.23;66.37;101151.91;4958232;28;45427;-68
2022/05/18 04:17:46;;;;;;;;;2.00;2.00;;;;;18.20;66.77;101159.22;4957925;28;46349;-72
2022/05/18 04:20:14;;;;;;;;;2.25;2.25;;;;;18.18;66.51;101154.00;4957664;28;45273;-74
2022/05/18 04:22:40;;;;;;;;;2.25;2.25;;;;;18.16;66.36;101153.25;4958004;28;45866;-72
2022/05/18 04:25:06;;;;;;;;;2.00;2.00;;;;;18.13;66.26;101157.91;4958028;28;45400;-72
2022/05/18 04:27:32;;;;;;;;;4.00;2.25;;;;;18.07;66.48;101152.00;4957855;28;46561;-71
2022/05/18 04:29:58;;;;;;;;;2.50;2.00;;;;;18.02;66.37;101148.78;4957452;28;45252;-74
2022/05/18 04:32:24;;;;;;;;;3.00;2.00;;;;;18.02;66.59;101147.91;4959489;28;45313;-73
2022/05/18 04:34:50;;;;;;;;;3.50;2.00;;;;;18.02;66.62;101148.78;4958974;28;45474;-76
2022/05/18 04:37:17;;;;;;;;;2.00;2.00;;;;;18.03;66.54;101154.97;4957392;28;45234;-66
2022/05/18 04:39:42;;;;;;;;;5.00;2.00;;;;;18.02;66.55;101158.56;4957966;28;45272;-69
2022/05/18 04:42:08;;;;;;;;;2.75;2.75;;;;;18.03;66.35;101153.16;4958698;28;45405;-68
2022/05/18 04:44:34;;;;;;;;;2.00;2.00;;;;;18.05;66.27;101158.41;4957997;28;45526;-70
2022/05/18 04:46:59;;;;;;;;;4.00;2.00;;;;;18.06;66.38;101160.13;4959207;28;45474;-66
2022/05/18 04:49:26;;;;;;;;;2.00;2.00;;;;;18.02;65.88;101148.78;4958109;28;45321;-71
2022/05/18 04:51:52;;;;;;;;;4.00;2.00;;;;;18.10;65.40;101170.44;4957367;28;45355;-69
2022/05/18 04:54:17;;;;;;;;;1.25;1.25;;;;;18.11;65.08;101176.66;4958793;28;45597;-67
2022/05/18 04:56:42;;;;;;;;;3.00;1.50;;;;;18.08;64.34;101176.84;4957427;28;45478;-67
2022/05/18 04:59:08;;;;;;;;;1.50;1.50;;;;;18.10;64.49;101186.44;4957321;28;45498;-69
2022/05/18 05:01:34;;;;;;;;;4.00;2.50;;;;;18.14;64.13;101187.09;4957289;28;45366;-73
2022/05/18 05:04:00;;;;;;;;;1.00;1.00;;;;;18.20;64.20;101194.72;4957475;28;45475;-71
2022/05/18 05:06:26;;;;;;;;;2.00;2.00;;;;;18.35;63.86;101200.00;4957438;28;45677;-69
2022/05/18 05:08:52;;;;;;;;;3.25;2.00;;;;;18.53;63.06;101185.53;4958117;28;45490;-67
2022/05/18 05:11:18;;;;;;;;;0.50;0.50;;;;;18.84;62.46;101194.19;4958683;28;45471;-66
2022/05/18 05:13:43;;;;;;;;;1.00;1.00;;;;;19.06;61.40;101186.63;4960257;28;45513;-67
2022/05/18 05:16:11;;;;;;;;;1.50;1.50;;;;;19.25;60.56;101200.44;4960300;28;45353;-68
2022/05/18 05:18:38;;;;;;;;;1.00;1.00;;;;;19.42;60.35;101196.63;4959751;28;45331;-70
2022/05/18 05:21:04;;;;;;;;;1.00;1.00;;;;;19.61;59.98;101203.38;4959373;28;45342;-71
2022/05/18 05:23:29;;;;;;;;;0.75;0.75;;;;;19.83;59.65;101209.88;4941947;28;45610;-71
2022/05/18 05:25:56;;;;;;;;;2.00;0.50;;;;;19.96;58.88;101205.44;4962700;28;45468;-72
2022/05/18 05:28:22;;;;;;;;;1.75;1.75;;;;;20.05;57.83;101200.41;4959198;28;45490;-67
2022/05/18 05:30:48;;;;;;;;;1.00;1.00;;;;;20.18;57.53;101211.09;4938984;28;45374;-71
2022/05/18 05:33:14;;;;;;;;;2.25;0.50;;;;;20.23;57.47;101216.94;4956418;28;45507;-73
2022/05/18 05:35:50;;;;;;;;;1.00;0.00;;;;;20.26;57.44;101214.06;5004943;27;45345;-74
2022/05/18 05:38:15;;;;;;;;;1.00;1.00;;;;;20.28;56.44;101228.16;4987940;28;45543;-73
2022/05/18 05:40:41;;;;;;;;;0.75;0.75;;;;;20.26;57.08;101227.41;4988435;28;45418;-75
2022/05/18 05:43:11;;;;;;;;;0.00;0.00;;;;;20.23;56.73;101236.50;4988483;28;45353;-73
2022/05/18 05:45:37;;;;;;;;;0.75;0.75;;;;;20.19;56.73;101237.69;4989101;28;45456;-74
2022/05/18 05:48:05;;;;;;;;;1.75;1.00;;;;;20.07;56.45;101227.84;4989737;28;45422;-73
2022/05/18 05:50:33;;;;;;;;;0.75;0.75;;;;;19.97;56.49;101225.81;4988684;28;45292;-68
2022/05/18 05:52:59;;;;;;;;;2.00;1.00;;;;;19.94;56.46;101238.56;4988723;28;45684;-66
2022/05/18 05:55:26;;;;;;;;;1.00;1.00;;;;;19.90;56.67;101237.06;4989305;28;46349;-69
2022/05/18 05:57:54;;;;;;;;;2.00;2.00;;;;;19.90;56.50;101237.91;4990656;28;45316;-66
2022/05/18 06:00:20;;;;;;;;;1.50;1.50;;;;;19.88;56.39;101247.78;4986975;28;45326;-66
2022/05/18 06:02:45;;;;;;;;;0.50;0.00;;;;;19.76;56.18;101245.97;4986805;28;45314;-66
2022/05/18 06:05:12;;;;;;;;;0.50;0.50;;;;;19.67;56.10;101242.97;4989169;28;46505;-65
2022/05/18 06:07:38;;;;;;;;;4.00;1.00;;;;;19.62;56.72;101244.28;4989663;28;45299;-67
2022/05/18 06:10:03;;;;;;;;;2.00;1.00;;;;;19.60;56.71;101241.69;4988766;28;45703;-67
2022/05/18 06:12:29;;;;;;;;;1.75;1.75;;;;;19.60;56.57;101254.16;4988395;28;45540;-68
2022/05/18 06:14:54;;;;;;;;;0.00;0.00;;;;;19.56;56.34;101242.84;4988029;28;46068;-66
2022/05/18 06:17:20;;;;;;;;;1.25;1.25;;;;;19.50;56.54;101249.44;4987869;28;45272;-66
2022/05/18 06:19:45;;;;;;;;;1.50;1.50;;;;;19.42;56.60;101247.31;4986515;28;45465;-67
2022/05/18 06:22:10;;;;;;;;;1.00;1.00;;;;;19.39;56.77;101260.00;4988179;28;45528;-67
2022/05/18 06:24:36;;;;;;;;;2.25;2.25;;;;;19.40;57.23;101256.38;4988299;27;45497;-71
2022/05/18 06:27:03;;;;;;;;;2.00;2.00;;;;;19.39;57.13;101258.19;4988225;28;45380;-68
2022/05/18 06:29:28;;;;;;;;;1.25;1.25;;;;;19.44;57.02;101255.19;4990118;28;45366;-68
2022/05/18 06:31:54;;;;;;;;;1.75;1.75;;;;;19.48;56.51;101264.69;4990823;28;45572;-68
2022/05/18 06:34:23;;;;;;;;;1.75;1.75;;;;;19.50;56.82;101253.94;4988981;28;45417;-69
2022/05/18 06:36:50;;;;;;;;;2.00;2.00;;;;;19.51;57.31;101253.81;4987640;27;45324;-67
2022/05/18 06:39:18;;;;;;;;;1.00;1.00;;;;;19.59;57.08;101258.66;4987629;28;45232;-67
2022/05/18 06:41:44;;;;;;;;;1.25;1.25;;;;;19.66;56.82;101257.28;4988541;28;45446;-65
2022/05/18 06:44:10;;;;;;;;;0.25;0.25;;;;;19.74;56.48;101256.78;5003182;27;46957;-72
2022/05/18 06:46:37;;;;;;;;;2.50;2.50;;;;;19.82;56.86;101258.91;4978728;28;45493;-71
2022/05/18 06:49:04;;;;;;;;;3.00;1.00;;;;;19.79;56.50;101251.97;4975540;28;45192;-69
2022/05/18 06:51:33;;;;;;;;;2.50;2.25;;;;;19.90;56.73;101261.94;4976165;28;45165;-76
2022/05/18 06:53:58;;;;;;;;;4.00;2.25;;;;;19.93;56.36;101251.03;4978547;28;46124;-74
2022/05/18 06:56:27;;;;;;;;;2.50;2.50;;;;;19.99;56.75;101252.44;4975710;28;45398;-73
2022/05/18 06:58:54;;;;;;;;;2.50;2.00;;;;;20.09;56.30;101257.97;4972831;28;45648;-73
2022/05/18 07:01:20;;;;;;;;;3.00;3.00;;;;;20.19;56.15;101267.06;4967181;28;45607;-70
2022/05/18 07:03:46;;;;;;;;;2.00;2.00;;;;;20.26;56.55;101259.47;4976632;28;46233;-74
2022/05/18 07:06:13;;;;;;;;;3.00;3.00;;;;;20.29;56.25;101259.25;4968075;28;45341;-70
2022/05/18 07:08:40;;;;;;;;;2.75;2.75;;;;;20.31;56.21;101249.31;4959270;28;45331;-75
2022/05/18 07:11:06;;;;;;;;;2.00;2.00;;;;;20.41;56.34;101253.03;5018718;28;45400;-71
2022/05/18 07:13:34;;;;;;;;;2.00;2.00;;;;;20.45;56.06;101251.00;5065832;28;46403;-72
2022/05/18 07:16:01;;;;;;;;;1.75;1.75;;;;;20.53;55.36;101255.78;4965389;28;45517;-71
2022/05/18 07:18:30;;;;;;;;;2.00;2.00;;;;;20.49;55.45;101260.50;4964212;28;45561;-70
2022/05/18 07:21:02;;;;;;;;;2.50;2.50;;;;;20.57;55.93;101259.94;4976372;28;45546;-70
2022/05/18 07:23:28;;;;;;;;;4.25;1.75;;;;;20.62;55.57;101262.31;4972389;27;46578;-79
2022/05/18 07:25:55;;;;;;;;;1.00;1.00;;;;;20.64;55.90;101260.38;4971097;28;45363;-71
2022/05/18 07:28:21;;;;;;;;;3.00;3.00;;;;;20.66;55.54;101259.28;4973406;28;45520;-72
2022/05/18 07:30:46;;;;;;;;;1.75;1.75;;;;;20.71;55.60;101254.50;4974540;28;45569;-70
2022/05/18 07:33:12;;;;;;;;;2.25;2.00;;;;;20.73;55.50;101241.88;4974000;28;46073;-68
2022/05/18 07:35:38;;;;;;;;;1.75;1.75;;;;;20.90;55.49;101260.31;4975772;28;45514;-68
2022/05/18 07:38:03;;;;;;;;;5.00;5.00;;;;;20.97;55.93;101262.44;4974381;28;45292;-69
2022/05/18 07:40:29;;;;;;;;;4.00;4.00;;;;;21.05;55.61;101263.69;4974733;28;45595;-68
2022/05/18 07:42:56;;;;;;;;;3.00;3.00;;;;;21.09;55.72;101270.53;4974447;28;45296;-71
2022/05/18 07:45:25;;;;;;;;;3.50;3.50;;;;;21.11;55.69;101271.25;4975628;28;45367;-72
2022/05/18 07:47:52;;;;;;;;;3.00;3.00;;;;;21.16;55.54;101267.25;4975981;28;45364;-68
2022/05/18 07:50:19;;;;;;;;;3.25;3.25;;;;;21.24;55.25;101268.53;4977308;28;45295;-69
2022/05/18 07:52:45;;;;;;;;;3.50;3.50;;;;;21.35;55.33;101265.03;4977009;28;46074;-69
2022/05/18 07:55:11;;;;;;;;;3.50;3.00;;;;;21.48;55.18;101270.34;4973652;28;45330;-67
2022/05/18 07:57:36;;;;;;;;;2.00;2.00;;;;;21.58;55.18;101258.81;4972747;28;45224;-67
2022/05/18 08:00:04;;;;;;;;;5.00;3.00;;;;;21.60;54.08;101258.69;4973957;28;45378;-68
2022/05/18 08:02:32;;;;;;;;;7.00;3.50;;;;;21.68;54.37;101261.66;4975590;28;45368;-69
2022/05/18 08:04:58;;;;;;;;;5.75;5.00;;;;;21.77;54.03;101261.94;4973402;28;45339;-69
2022/05/18 08:07:23;;;;;;;;;4.50;4.50;;;;;21.86;53.92;101254.06;4976690;28;45217;-69
2022/05/18 08:15:19;;;;;;;;;6.00;4.00;;;;;22.23;53.21;101254.81;4973234;28;45349;-71
2022/05/18 08:17:44;;;;;;;;;2.00;2.00;;;;;22.24;52.90;101246.63;4974367;28;45250;-68
2022/05/18 08:20:13;;;;;;;;;6.50;4.00;;;;;22.44;53.12;101254.94;4975114;28;45619;-67
2022/05/18 08:22:40;;;;;;;;;3.50;3.00;;;;;22.59;52.65;101255.53;4973782;28;45309;-69
2022/05/18 08:25:05;;;;;;;;;4.25;2.75;;;;;22.65;52.49;101238.13;4972063;28;45840;-68
2022/05/18 08:27:31;;;;;;;;;3.25;2.50;;;;;22.87;52.22;101240.75;4974588;28;45470;-70
2022/05/18 08:30:07;;;;;;;;;4.75;3.25;;;;;23.15;52.05;101251.88;4973655;28;45394;-68
2022/05/18 08:32:32;;;;;;;;;5.25;3.25;;;;;23.27;51.41;101254.53;4973257;28;45270;-68
2022/05/18 08:34:57;;;;;;;;;5.00;5.00;;;;;23.41;51.62;101253.38;4971140;28;45541;-67
2022/05/18 08:37:24;;;;;;;;;3.00;3.00;;;;;23.59;51.08;101253.66;4973156;28;45506;-69
2022/05/18 08:39:50;;;;;;;;;2.00;2.00;;;;;23.66;50.78;101252.16;4973685;28;45393;-68
2022/05/18 08:42:18;;;;;;;;;3.25;3.25;;;;;23.75;51.11;101248.69;4973059;28;46165;-68
2022/05/18 08:44:44;;;;;;;;;4.75;4.75;;;;;23.86;49.75;101250.47;4973138;28;45465;-68
2022/05/18 08:47:25;;;;;;;;;4.00;3.00;;;;;23.94;50.16;101255.16;4974322;28;45291;-68
2022/05/18 08:49:56;;;;;;;;;4.50;3.75;;;;;24.02;50.23;101241.94;4975639;28;45260;-67
2022/05/18 08:52:54;;;;;;;;;4.00;4.00;;;;;24.22;49.96;101250.09;4972499;28;46994;-68
2022/05/18 08:55:44;;;;;;;;;6.25;3.50;;;;;24.46;50.00;101247.06;4971380;28;45396;-68
2022/05/18 08:58:22;;;;;;;;;2.50;2.50;;;;;24.65;48.85;101240.91;4973314;28;45425;-68
2022/05/18 09:00:58;;;;;;;;;5.50;5.50;;;;;24.74;48.28;101246.47;4971458;27;45510;-68
2022/05/18 09:03:32;;;;;;;;;5.25;3.50;;;;;24.65;48.79;101243.59;4974802;28;45901;-67
2022/05/18 09:06:25;;;;;;;;;5.00;5.00;;;;;24.68;48.71;101242.44;4973540;28;45752;-69
2022/05/18 09:11:48;;;;;;;;;5.00;4.00;;;;;24.84;48.35;101238.41;4974135;28;45244;-69
2022/05/18 09:14:17;;;;;;;;;1.50;1.00;;;;;24.90;48.32;101238.69;4974626;28;46334;-69
2022/05/18 09:16:48;;;;;;;;;3.00;2.00;;;;;24.94;48.50;101248.19;4956529;28;45369;-68
2022/05/18 09:19:51;;;;;;;;;5.00;5.00;;;;;25.12;48.01;101235.91;4972363;28;45400;-70
2022/05/18 09:22:38;;;;;;;;;3.00;3.00;;;;;25.23;47.68;101236.59;4972586;28;45612;-71
2022/05/18 09:25:31;;;;;;;;;4.50;4.50;;;;;25.28;47.38;101230.78;4973766;28;46455;-70
2022/05/18 09:28:12;;;;;;;;;3.75;3.75;;;;;25.19;46.98;101224.41;4973908;28;45284;-69
2022/05/18 09:30:51;;;;;;;;;2.25;2.25;;;;;25.17;47.43;101231.78;4972880;28;45394;-69
2022/05/18 09:33:23;;;;;;;;;4.00;4.00;;;;;25.14;47.84;101232.06;4972899;28;45269;-70
2022/05/18 09:35:56;;;;;;;;;9.75;6.00;;;;;25.11;48.08;101220.75;4972965;28;46329;-70
2022/05/18 09:38:24;;;;;;;;;4.50;4.50;;;;;25.15;47.75;101217.59;4972481;28;45605;-69
2022/05/18 09:40:50;;;;;;;;;5.00;5.00;;;;;25.30;47.57;101222.56;4972049;28;45408;-68
2022/05/18 09:43:32;;;;;;;;;27.75;24.00;;;;;25.42;46.82;101221.41;4972364;28;45408;-68
2022/05/18 09:45:58;;;;;;;;;6.50;5.75;;;;;25.58;47.17;101225.41;4973162;28;46389;-68
2022/05/18 09:48:34;;;;;;;;;5.25;5.00;;;;;25.61;45.95;101211.66;4974202;28;45320;-68
2022/05/18 09:51:02;;;;;;;;;5.75;4.25;;;;;25.64;46.41;101216.75;4972250;28;45303;-68
2022/05/18 09:53:28;;;;;;;;;2.75;2.75;;;;;25.63;46.42;101217.75;4972539;28;45509;-70
2022/05/18 09:55:54;;;;;;;;;4.75;3.50;;;;;25.61;45.93;101217.03;4971247;28;46336;-69
2022/05/18 09:58:29;;;;;;;;;4.00;2.75;;;;;25.59;46.32;101213.63;4970445;28;45567;-68
2022/05/18 10:09:26;;;;;;;;;6.75;5.50;;;;;25.74;45.91;101205.94;4973058;28;45433;-71
2022/05/18 10:11:51;;;;;;;;;4.50;4.50;;;;;25.87;45.55;101202.91;4972287;28;45267;-68
2022/05/18 10:14:31;;;;;;;;;7.00;5.00;;;;;25.94;44.98;101199.47;4972270;28;45241;-68
2022/05/18 10:17:05;;;;;;;;;4.00;4.00;;;;;25.95;44.82;101194.94;4971146;28;46248;-67
2022/05/18 10:19:42;;;;;;;;;4.50;3.00;;;;;25.97;44.82;101192.94;4971594;28;45397;-70
2022/05/18 10:22:12;;;;;;;;;4.25;4.25;;;;;26.01;45.14;101188.97;4975373;28;45412;-71
2022/05/18 10:24:46;;;;;;;;;6.25;6.25;;;;;26.11;45.66;101189.75;4974717;28;45198;-70
2022/05/18 10:27:14;;;;;;;;;6.00;5.50;;;;;26.22;45.43;101191.47;4974664;28;46285;-68
2022/05/18 10:29:43;;;;;;;;;10.00;8.50;;;;;26.18;45.38;101163.09;4992482;27;45244;-69
2022/05/18 10:32:18;;;;;;;;;5.75;5.75;;;;;26.38;45.14;101177.28;4975087;28;45396;-70
2022/05/18 10:34:50;;;;;;;;;3.25;3.25;;;;;26.56;44.78;101172.94;4974475;28;45367;-69
2022/05/18 10:37:28;;;;;;;;;5.75;5.75;;;;;26.51;44.01;101170.72;4974155;28;46339;-69
2022/05/18 10:40:18;;;;;;;;;3.75;3.75;;;;;26.39;44.03;101173.59;4974420;28;45453;-67
2022/05/18 10:42:44;;;;;;;;;3.00;3.00;;;;;26.43;43.77;101167.91;4974241;27;45360;-67
2022/05/18 10:45:32;;;;;;;;;7.25;7.25;;;;;26.44;43.79;101159.69;4975253;28;45479;-70
2022/05/18 10:48:05;;;;;;;;;6.50;6.00;;;;;26.46;43.66;101156.81;4974935;28;46017;-69
2022/05/18 10:50:41;;;;;;;;;7.50;7.50;;;;;26.40;44.11;101150.19;4974699;28;45317;-70
2022/05/18 10:53:13;;;;;;;;;5.25;5.25;;;;;26.43;44.28;101151.72;4974590;28;45574;-69
2022/05/18 10:55:55;;;;;;;;;4.25;4.25;;;;;26.42;44.48;101152.72;4974637;28;45386;-67
2022/05/18 10:58:26;;;;;;;;;6.75;5.50;;;;;26.47;44.17;101148.56;4974073;28;45318;-69
2022/05/18 11:01:22;;;;;;;;;4.25;3.00;;;;;26.52;43.68;101146.28;4974077;28;45268;-67
2022/05/18 11:04:07;;;;;;;;;9.25;8.75;;;;;26.60;42.69;101145.53;4973646;28;45411;-68
2022/05/18 11:06:40;;;;;;;;;6.25;4.50;;;;;26.72;43.12;101139.88;4974365;28;45256;-67
2022/05/18 11:09:15;;;;;;;;;6.75;6.75;;;;;26.91;42.86;101141.59;4974636;27;45252;-67
2022/05/18 11:12:05;;;;;;;;;4.00;3.25;;;;;26.95;42.07;101143.84;4973211;28;45400;-69
2022/05/18 11:14:51;;;;;;;;;4.00;4.00;;;;;26.88;42.04;101141.91;4989429;28;45420;-71
2022/05/18 11:17:25;;;;;;;;;3.50;3.50;;;;;26.86;42.66;101143.91;4974156;28;45363;-67
2022/05/18 11:20:10;;;;;;;;;5.00;3.50;;;;;26.96;42.18;101142.81;4974723;28;45424;-71
2022/05/18 11:22:50;;;;;;;;;2.00;2.00;;;;;26.98;41.37;101140.81;4975408;28;45423;-67
2022/05/18 11:25:36;;;;;;;;;3.75;3.25;;;;;27.07;41.21;101144.44;4974394;28;45293;-67
2022/05/18 11:28:19;;;;;;;;;5.25;5.25;;;;;27.16;41.66;101145.34;4975289;28;45316;-70
2022/05/18 11:31:11;;;;;;;;;9.75;7.75;;;;;27.25;41.81;101144.38;4975151;28;46194;-69
2022/05/18 11:33:46;;;;;;;;;2.00;2.00;;;;;27.37;40.77;101149.53;4973969;28;45383;-68
2022/05/18 11:36:34;;;;;;;;;4.25;3.00;;;;;27.47;40.97;101135.94;4974440;28;45337;-67
2022/05/18 11:39:07;;;;;;;;;4.00;3.00;;;;;27.56;39.81;101140.41;4974346;28;45324;-69
2022/05/18 11:42:03;;;;;;;;;4.00;4.00;;;;;27.63;40.43;101135.22;4973752;28;46210;-68
2022/05/18 11:45:07;;;;;;;;;4.00;3.00;;;;;27.73;39.97;101129.69;4973513;28;45330;-67
2022/05/18 11:47:56;;;;;;;;;37.50;32.75;;;;;27.87;39.91;101130.94;4973742;28;45320;-68
2022/05/18 11:50:34;;;;;;;;;8.50;7.75;;;;;27.91;40.13;101125.03;4975075;28;45385;-68
2022/05/18 11:53:34;;;;;;;;;29.75;28.00;;;;;27.98;40.28;101112.53;4972605;28;46110;-66
2022/05/18 11:56:19;;;;;;;;;26.00;26.00;;;;;28.02;40.02;101115.78;4974193;28;45311;-69
2022/05/18 11:59:11;;;;;;;;;47.00;39.75;;;;;28.10;40.55;101113.09;4974624;27;45320;-69